sensor_id;sensor_type;location;lat;lon;timestamp;pressure;altitude;pressure_sealevel;temperature;humidity
6899;BME280;3488;42.616;23.350;2022-07-19T00:02:07;63904.44;;;18.39;80.09
6899;BME280;3488;42.616;23.350;2022-07-19T00:04:34;63897.19;;;18.37;80.11
6899;BME280;3488;42.616;23.350;2022-07-19T00:07:02;63901.81;;;18.36;80.46
6899;BME280;3488;42.616;23.350;2022-07-19T00:09:30;63890.44;;;18.30;80.66
6899;BME280;3488;42.616;23.350;2022-07-19T00:11:57;63897.19;;;18.37;80.25
6899;BME280;3488;42.616;23.350;2022-07-19T00:14:24;63903.47;;;18.43;80.25
6899;BME280;3488;42.616;23.350;2022-07-19T00:16:51;63905.03;;;18.45;79.96
6899;BME280;3488;42.616;23.350;2022-07-19T00:19:18;63910.75;;;18.50;79.87
6899;BME280;3488;42.616;23.350;2022-07-19T00:21:45;63905.53;;;18.45;80.20
6899;BME280;3488;42.616;23.350;2022-07-19T00:24:12;63903.47;;;18.43;80.17
6899;BME280;3488;42.616;23.350;2022-07-19T00:26:40;63897.22;;;18.39;80.20
6899;BME280;3488;42.616;23.350;2022-07-19T00:29:07;63896.69;;;18.39;79.83
6899;BME280;3488;42.616;23.350;2022-07-19T00:31:34;63895.09;;;18.35;80.41
6899;BME280;3488;42.616;23.350;2022-07-19T00:34:01;63887.84;;;18.30;80.82
6899;BME280;3488;42.616;23.350;2022-07-19T00:36:29;63883.69;;;18.26;81.03
6899;BME280;3488;42.616;23.350;2022-07-19T00:38:56;63881.09;;;18.26;80.60
6899;BME280;3488;42.616;23.350;2022-07-19T00:41:23;63886.75;;;18.24;80.68
6899;BME280;3488;42.616;23.350;2022-07-19T00:43:51;63875.84;;;18.19;80.83
6899;BME280;3488;42.616;23.350;2022-07-19T00:46:20;63875.84;;;18.19;80.44
6899;BME280;3488;42.616;23.350;2022-07-19T00:48:47;63883.13;;;18.23;79.95
6899;BME280;3488;42.616;23.350;2022-07-19T00:51:16;63890.44;;;18.30;79.59
6899;BME280;3488;42.616;23.350;2022-07-19T00:53:44;63883.13;;;18.23;80.02
6899;BME280;3488;42.616;23.350;2022-07-19T00:56:12;63886.22;;;18.24;80.05
6899;BME280;3488;42.616;23.350;2022-07-19T00:58:40;63880.50;;;18.18;80.18
6899;BME280;3488;42.616;23.350;2022-07-19T01:01:09;63886.78;;;18.27;79.62
6899;BME280;3488;42.616;23.350;2022-07-19T01:03:38;63877.41;;;18.18;80.18
6899;BME280;3488;42.616;23.350;2022-07-19T01:06:06;63874.78;;;18.15;80.27
6899;BME280;3488;42.616;23.350;2022-07-19T01:08:34;63868.53;;;18.09;80.34
6899;BME280;3488;42.616;23.350;2022-07-19T01:11:02;63871.66;;;18.12;80.45
6899;BME280;3488;42.616;23.350;2022-07-19T01:13:30;63859.19;;;18.03;81.15
6899;BME280;3488;42.616;23.350;2022-07-19T01:15:57;63854.50;;;17.98;81.99
6899;BME280;3488;42.616;23.350;2022-07-19T01:18:26;63857.06;;;17.96;81.59
6899;BME280;3488;42.616;23.350;2022-07-19T01:20:53;63850.84;;;17.95;82.10
6899;BME280;3488;42.616;23.350;2022-07-19T01:23:21;63862.28;;;18.03;81.86
6899;BME280;3488;42.616;23.350;2022-07-19T01:25:48;63864.38;;;18.05;82.07
6899;BME280;3488;42.616;23.350;2022-07-19T01:28:15;63849.25;;;17.88;82.24
6899;BME280;3488;42.616;23.350;2022-07-19T01:30:42;63844.03;;;17.81;82.33
6899;BME280;3488;42.616;23.350;2022-07-19T01:33:09;63853.91;;;17.90;82.34
6899;BME280;3488;42.616;23.350;2022-07-19T01:35:36;63852.88;;;17.92;81.66
6899;BME280;3488;42.616;23.350;2022-07-19T01:38:02;63849.81;;;17.94;82.36
6899;BME280;3488;42.616;23.350;2022-07-19T01:40:31;63856.00;;;17.95;81.82
6899;BME280;3488;42.616;23.350;2022-07-19T01:42:58;63843.53;;;17.85;81.78
6899;BME280;3488;42.616;23.350;2022-07-19T01:45:25;63845.09;;;17.84;82.17
6899;BME280;3488;42.616;23.350;2022-07-19T01:47:52;63836.78;;;17.79;82.83
6899;BME280;3488;42.616;23.350;2022-07-19T01:50:19;63839.94;;;17.84;82.70
6899;BME280;3488;42.616;23.350;2022-07-19T01:52:46;63839.88;;;17.79;83.33
6899;BME280;3488;42.616;23.350;2022-07-19T01:55:13;63840.38;;;17.77;83.73
6899;BME280;3488;42.616;23.350;2022-07-19T01:57:41;63831.06;;;17.76;83.97
6899;BME280;3488;42.616;23.350;2022-07-19T02:00:10;63830.03;;;17.75;83.92
6899;BME280;3488;42.616;23.350;2022-07-19T02:02:37;63835.66;;;17.73;83.96
6899;BME280;3488;42.616;23.350;2022-07-19T02:05:04;63832.59;;;17.75;84.04
6899;BME280;3488;42.616;23.350;2022-07-19T02:07:31;63837.28;;;17.77;83.70
6899;BME280;3488;42.616;23.350;2022-07-19T02:09:58;63838.34;;;17.80;83.37
6899;BME280;3488;42.616;23.350;2022-07-19T02:12:25;63836.19;;;17.73;83.46
6899;BME280;3488;42.616;23.350;2022-07-19T02:14:53;63840.34;;;17.75;83.70
6899;BME280;3488;42.616;23.350;2022-07-19T02:17:20;63828.97;;;17.71;84.03
6899;BME280;3488;42.616;23.350;2022-07-19T02:19:47;63825.84;;;17.68;84.35
6899;BME280;3488;42.616;23.350;2022-07-19T02:22:15;63828.97;;;17.71;84.15
6899;BME280;3488;42.616;23.350;2022-07-19T02:24:41;63823.75;;;17.66;83.76
6899;BME280;3488;42.616;23.350;2022-07-19T02:27:09;63823.22;;;17.66;83.71
6899;BME280;3488;42.616;23.350;2022-07-19T02:29:36;63816.47;;;17.59;84.76
6899;BME280;3488;42.616;23.350;2022-07-19T02:32:06;63797.69;;;17.39;86.89
6899;BME280;3488;42.616;23.350;2022-07-19T02:34:34;63791.50;;;17.38;87.27
6899;BME280;3488;42.616;23.350;2022-07-19T02:37:01;63793.53;;;17.37;87.17
6899;BME280;3488;42.616;23.350;2022-07-19T02:39:28;63778.41;;;17.20;87.53
6899;BME280;3488;42.616;23.350;2022-07-19T02:41:56;63783.63;;;17.25;88.19
6899;BME280;3488;42.616;23.350;2022-07-19T02:44:23;63767.03;;;17.14;89.14
6899;BME280;3488;42.616;23.350;2022-07-19T02:46:51;63755.03;;;17.00;90.46
6899;BME280;3488;42.616;23.350;2022-07-19T02:49:19;63740.97;;;16.86;91.71
6899;BME280;3488;42.616;23.350;2022-07-19T02:51:47;63741.47;;;16.84;92.20
6899;BME280;3488;42.616;23.350;2022-07-19T02:54:14;63740.94;;;16.84;92.52
6899;BME280;3488;42.616;23.350;2022-07-19T02:56:41;63736.75;;;16.77;93.06
6899;BME280;3488;42.616;23.350;2022-07-19T02:59:08;63735.22;;;16.78;92.89
6899;BME280;3488;42.616;23.350;2022-07-19T03:01:35;63726.91;;;16.70;93.13
6899;BME280;3488;42.616;23.350;2022-07-19T03:04:02;63714.50;;;16.66;93.54
6899;BME280;3488;42.616;23.350;2022-07-19T03:06:30;63713.41;;;16.60;93.50
6899;BME280;3488;42.616;23.350;2022-07-19T03:08:57;63728.47;;;16.72;92.81
6899;BME280;3488;42.616;23.350;2022-07-19T03:11:24;63714.97;;;16.61;93.35
6899;BME280;3488;42.616;23.350;2022-07-19T03:13:51;63727.41;;;16.68;93.18
6899;BME280;3488;42.616;23.350;2022-07-19T03:16:18;63734.69;;;16.75;93.48
6899;BME280;3488;42.616;23.350;2022-07-19T03:18:44;63721.25;;;16.72;93.86
6899;BME280;3488;42.616;23.350;2022-07-19T03:21:11;63735.22;;;16.78;94.09
6899;BME280;3488;42.616;23.350;2022-07-19T03:23:40;63736.25;;;16.77;94.51
6899;BME280;3488;42.616;23.350;2022-07-19T03:26:07;63735.75;;;16.79;94.24
6899;BME280;3488;42.616;23.350;2022-07-19T03:28:34;63736.75;;;16.77;94.20
6899;BME280;3488;42.616;23.350;2022-07-19T03:31:01;63736.31;;;16.84;92.86
6899;BME280;3488;42.616;23.350;2022-07-19T03:33:28;63748.19;;;16.88;92.83
6899;BME280;3488;42.616;23.350;2022-07-19T03:35:55;63747.72;;;16.93;91.53
6899;BME280;3488;42.616;23.350;2022-07-19T03:38:22;63756.03;;;16.98;89.51
6899;BME280;3488;42.616;23.350;2022-07-19T03:40:50;63769.00;;;17.08;88.59
6899;BME280;3488;42.616;23.350;2022-07-19T03:43:18;63776.34;;;17.20;85.43
6899;BME280;3488;42.616;23.350;2022-07-19T03:45:46;63793.00;;;17.37;84.30
6899;BME280;3488;42.616;23.350;2022-07-19T03:48:13;63815.41;;;17.56;82.39
6899;BME280;3488;42.616;23.350;2022-07-19T03:50:40;63822.19;;;17.65;81.20
6899;BME280;3488;42.616;23.350;2022-07-19T03:53:07;63835.22;;;17.77;80.19
6899;BME280;3488;42.616;23.350;2022-07-19T03:55:34;63856.53;;;17.95;78.73
6899;BME280;3488;42.616;23.350;2022-07-19T03:58:03;63867.47;;;18.06;77.65
6899;BME280;3488;42.616;23.350;2022-07-19T04:00:30;63874.75;;;18.13;77.53
6899;BME280;3488;42.616;23.350;2022-07-19T04:02:58;63877.94;;;18.21;77.20
6899;BME280;3488;42.616;23.350;2022-07-19T04:05:24;63899.78;;;18.37;76.65
6899;BME280;3488;42.616;23.350;2022-07-19T04:07:51;63917.00;;;18.56;77.63
6899;BME280;3488;42.616;23.350;2022-07-19T04:10:18;63923.25;;;18.60;78.55
6899;BME280;3488;42.616;23.350;2022-07-19T04:12:45;63950.34;;;18.86;79.15
6899;BME280;3488;42.616;23.350;2022-07-19T04:15:14;63958.19;;;18.96;80.36
6899;BME280;3488;42.616;23.350;2022-07-19T04:17:40;63957.66;;;18.93;81.74
6899;BME280;3488;42.616;23.350;2022-07-19T04:20:08;63936.28;;;18.72;83.73
6899;BME280;3488;42.616;23.350;2022-07-19T04:22:35;63944.59;;;18.80;83.69
6899;BME280;3488;42.616;23.350;2022-07-19T04:25:02;63948.78;;;18.87;83.72
6899;BME280;3488;42.616;23.350;2022-07-19T04:27:29;63938.38;;;18.77;85.09
6899;BME280;3488;42.616;23.350;2022-07-19T04:29:56;63950.34;;;18.86;84.29
6899;BME280;3488;42.616;23.350;2022-07-19T04:32:25;63961.84;;;18.99;84.15
6899;BME280;3488;42.616;23.350;2022-07-19T04:34:53;63964.47;;;19.04;83.37
6899;BME280;3488;42.616;23.350;2022-07-19T04:37:20;63961.81;;;18.97;84.34
6899;BME280;3488;42.616;23.350;2022-07-19T04:39:47;63961.31;;;18.99;85.08
6899;BME280;3488;42.616;23.350;2022-07-19T04:42:14;63961.28;;;18.96;85.85
6899;BME280;3488;42.616;23.350;2022-07-19T04:44:41;63966.56;;;19.06;85.60
6899;BME280;3488;42.616;23.350;2022-07-19T04:47:08;63986.31;;;19.23;84.89
6899;BME280;3488;42.616;23.350;2022-07-19T04:49:36;63975.38;;;19.12;86.68
6899;BME280;3488;42.616;23.350;2022-07-19T04:52:03;63982.69;;;19.19;87.28
6899;BME280;3488;42.616;23.350;2022-07-19T04:54:31;63999.88;;;19.33;87.31
6899;BME280;3488;42.616;23.350;2022-07-19T04:56:58;64023.31;;;19.53;86.89
6899;BME280;3488;42.616;23.350;2022-07-19T04:59:25;64019.25;;;19.60;80.52
6899;BME280;3488;42.616;23.350;2022-07-19T05:01:52;64036.41;;;19.69;77.78
6899;BME280;3488;42.616;23.350;2022-07-19T05:04:19;64055.69;;;19.90;76.75
6899;BME280;3488;42.616;23.350;2022-07-19T05:06:47;64056.75;;;19.93;76.48
6899;BME280;3488;42.616;23.350;2022-07-19T05:09:17;64069.78;;;20.01;76.47
6899;BME280;3488;42.616;23.350;2022-07-19T05:11:45;64078.13;;;20.11;78.76
6899;BME280;3488;42.616;23.350;2022-07-19T05:14:12;64079.16;;;20.10;80.28
6899;BME280;3488;42.616;23.350;2022-07-19T05:16:39;64101.06;;;20.28;78.87
6899;BME280;3488;42.616;23.350;2022-07-19T05:19:06;64105.81;;;20.38;77.01
6899;BME280;3488;42.616;23.350;2022-07-19T05:21:33;64111.03;;;20.43;76.63
6899;BME280;3488;42.616;23.350;2022-07-19T05:24:01;64101.66;;;20.36;75.90
6899;BME280;3488;42.616;23.350;2022-07-19T05:26:28;64107.88;;;20.37;76.23
6899;BME280;3488;42.616;23.350;2022-07-19T05:28:57;64100.03;;;20.27;75.32
6899;BME280;3488;42.616;23.350;2022-07-19T05:31:23;64093.31;;;20.26;76.14
6899;BME280;3488;42.616;23.350;2022-07-19T05:33:51;64089.09;;;20.19;76.64
6899;BME280;3488;42.616;23.350;2022-07-19T05:36:18;64102.69;;;20.35;76.58
6899;BME280;3488;42.616;23.350;2022-07-19T05:38:46;64100.09;;;20.35;77.57
6899;BME280;3488;42.616;23.350;2022-07-19T05:41:14;64108.41;;;20.38;76.56
6899;BME280;3488;42.616;23.350;2022-07-19T05:43:42;64113.13;;;20.47;77.29
6899;BME280;3488;42.616;23.350;2022-07-19T05:46:09;64128.25;;;20.59;76.80
6899;BME280;3488;42.616;23.350;2022-07-19T05:48:36;64129.81;;;20.61;76.86
6899;BME280;3488;42.616;23.350;2022-07-19T05:51:03;64121.47;;;20.53;74.85
6899;BME280;3488;42.616;23.350;2022-07-19T05:53:30;64132.94;;;20.61;75.69
6899;BME280;3488;42.616;23.350;2022-07-19T05:55:57;64127.72;;;20.59;75.16
6899;BME280;3488;42.616;23.350;2022-07-19T05:58:25;64100.09;;;20.35;76.65
6899;BME280;3488;42.616;23.350;2022-07-19T06:00:52;64124.06;;;20.53;77.22
6899;BME280;3488;42.616;23.350;2022-07-19T06:03:36;64108.41;;;20.38;76.91
6899;BME280;3488;42.616;23.350;2022-07-19T06:06:03;64121.44;;;20.48;78.38
6899;BME280;3488;42.616;23.350;2022-07-19T06:08:30;64134.00;;;20.65;77.81
6899;BME280;3488;42.616;23.350;2022-07-19T06:10:57;64153.31;;;20.84;77.68
6899;BME280;3488;42.616;23.350;2022-07-19T06:13:26;64180.47;;;21.10;73.95
6899;BME280;3488;42.616;23.350;2022-07-19T06:15:53;64199.28;;;21.30;72.92
6899;BME280;3488;42.616;23.350;2022-07-19T06:18:20;64199.25;;;21.28;74.13
6899;BME280;3488;42.616;23.350;2022-07-19T06:20:47;64203.94;;;21.27;72.47
6899;BME280;3488;42.616;23.350;2022-07-19T06:23:15;64196.13;;;21.25;73.66
6899;BME280;3488;42.616;23.350;2022-07-19T06:25:42;64214.91;;;21.40;72.88
6899;BME280;3488;42.616;23.350;2022-07-19T06:28:09;64239.97;;;21.62;72.09
6899;BME280;3488;42.616;23.350;2022-07-19T06:30:37;64236.88;;;21.64;70.57
6899;BME280;3488;42.616;23.350;2022-07-19T06:33:04;64230.09;;;21.57;69.19
6899;BME280;3488;42.616;23.350;2022-07-19T06:35:31;64261.44;;;21.85;70.08
6899;BME280;3488;42.616;23.350;2022-07-19T06:37:57;64275.56;;;22.01;67.89
6899;BME280;3488;42.616;23.350;2022-07-19T06:40:24;64275.03;;;21.98;66.21
6899;BME280;3488;42.616;23.350;2022-07-19T06:42:51;64273.47;;;21.99;68.21
6899;BME280;3488;42.616;23.350;2022-07-19T06:45:18;64287.06;;;22.12;66.97
6899;BME280;3488;42.616;23.350;2022-07-19T06:47:46;64289.66;;;22.15;66.09
6899;BME280;3488;42.616;23.350;2022-07-19T06:50:17;64309.50;;;22.31;64.10
6899;BME280;3488;42.616;23.350;2022-07-19T06:52:44;64330.94;;;22.52;64.57
6899;BME280;3488;42.616;23.350;2022-07-19T06:55:11;64330.41;;;22.51;63.86
6899;BME280;3488;42.616;23.350;2022-07-19T06:57:38;64349.78;;;22.72;61.74
6899;BME280;3488;42.616;23.350;2022-07-19T07:00:07;64368.06;;;22.87;60.93
6899;BME280;3488;42.616;23.350;2022-07-19T07:02:35;64389.47;;;23.06;59.42
6899;BME280;3488;42.616;23.350;2022-07-19T07:05:04;64391.09;;;23.12;59.59
6899;BME280;3488;42.616;23.350;2022-07-19T07:07:31;64400.47;;;23.14;57.12
6899;BME280;3488;42.616;23.350;2022-07-19T07:09:59;64375.38;;;22.92;57.96
6899;BME280;3488;42.616;23.350;2022-07-19T07:12:27;64394.75;;;23.13;57.96
6899;BME280;3488;42.616;23.350;2022-07-19T07:14:54;64412.00;;;23.30;55.11
6899;BME280;3488;42.616;23.350;2022-07-19T07:17:21;64419.34;;;23.37;50.98
6899;BME280;3488;42.616;23.350;2022-07-19T07:19:48;64431.91;;;23.51;52.93
6899;BME280;3488;42.616;23.350;2022-07-19T07:22:16;64451.78;;;23.68;51.50
6899;BME280;3488;42.616;23.350;2022-07-19T07:24:43;64454.91;;;23.71;47.52
6899;BME280;3488;42.616;23.350;2022-07-19T07:27:10;64474.28;;;23.92;49.31
6899;BME280;3488;42.616;23.350;2022-07-19T07:29:37;64490.00;;;24.05;47.57
6899;BME280;3488;42.616;23.350;2022-07-19T07:32:04;64505.19;;;24.22;43.64
6899;BME280;3488;42.616;23.350;2022-07-19T07:34:31;64520.88;;;24.34;44.31
6899;BME280;3488;42.616;23.350;2022-07-19T07:36:58;64530.28;;;24.41;43.73
6899;BME280;3488;42.616;23.350;2022-07-19T07:39:26;64519.81;;;24.31;44.92
6899;BME280;3488;42.616;23.350;2022-07-19T07:41:53;64524.00;;;24.35;47.53
6899;BME280;3488;42.616;23.350;2022-07-19T07:44:20;64539.72;;;24.52;48.26
6899;BME280;3488;42.616;23.350;2022-07-19T07:46:47;64544.97;;;24.60;47.21
6899;BME280;3488;42.616;23.350;2022-07-19T07:49:14;64531.34;;;24.44;44.78
6899;BME280;3488;42.616;23.350;2022-07-19T07:51:41;64502.53;;;24.14;45.01
6899;BME280;3488;42.616;23.350;2022-07-19T07:54:08;64499.94;;;24.17;46.06
6899;BME280;3488;42.616;23.350;2022-07-19T07:56:36;64522.94;;;24.34;46.94
6899;BME280;3488;42.616;23.350;2022-07-19T07:59:03;64520.38;;;24.39;47.75
6899;BME280;3488;42.616;23.350;2022-07-19T08:01:30;64538.66;;;24.49;46.97
6899;BME280;3488;42.616;23.350;2022-07-19T08:03:57;64539.19;;;24.52;46.08
6899;BME280;3488;42.616;23.350;2022-07-19T08:06:24;64562.78;;;24.74;46.28
6899;BME280;3488;42.616;23.350;2022-07-19T08:08:51;64573.75;;;24.82;45.49
6899;BME280;3488;42.616;23.350;2022-07-19T08:11:18;64543.41;;;24.58;44.91
6899;BME280;3488;42.616;23.350;2022-07-19T08:13:46;64487.38;;;24.05;46.34
6899;BME280;3488;42.616;23.350;2022-07-19T08:16:12;64494.16;;;24.06;48.11
6899;BME280;3488;42.616;23.350;2022-07-19T08:18:39;64505.19;;;24.19;48.26
6899;BME280;3488;42.616;23.350;2022-07-19T08:21:07;64514.59;;;24.31;46.41
6899;BME280;3488;42.616;23.350;2022-07-19T08:23:33;64507.28;;;24.21;46.63
6899;BME280;3488;42.616;23.350;2022-07-19T08:26:00;64519.28;;;24.30;44.75
6899;BME280;3488;42.616;23.350;2022-07-19T08:28:27;64517.22;;;24.33;46.12
6899;BME280;3488;42.616;23.350;2022-07-19T08:30:56;64513.53;;;24.25;46.17
6899;BME280;3488;42.616;23.350;2022-07-19T08:33:22;64494.69;;;24.09;47.02
6899;BME280;3488;42.616;23.350;2022-07-19T08:35:49;64511.97;;;24.26;47.64
6899;BME280;3488;42.616;23.350;2022-07-19T08:38:16;64517.75;;;24.34;47.25
6899;BME280;3488;42.616;23.350;2022-07-19T08:40:43;64525.09;;;24.43;45.39
6899;BME280;3488;42.616;23.350;2022-07-19T08:43:12;64535.53;;;24.51;45.81
6899;BME280;3488;42.616;23.350;2022-07-19T08:45:40;64538.16;;;24.53;45.42
6899;BME280;3488;42.616;23.350;2022-07-19T08:48:09;64529.25;;;24.42;46.06
6899;BME280;3488;42.616;23.350;2022-07-19T08:50:37;64533.97;;;24.49;45.26
6899;BME280;3488;42.616;23.350;2022-07-19T08:53:05;64537.06;;;24.47;43.62
6899;BME280;3488;42.616;23.350;2022-07-19T08:55:32;64546.03;;;24.61;44.61
6899;BME280;3488;42.616;23.350;2022-07-19T08:57:59;64564.88;;;24.76;44.27
6899;BME280;3488;42.616;23.350;2022-07-19T09:00:28;64586.34;;;24.97;44.85
6899;BME280;3488;42.616;23.350;2022-07-19T09:02:57;64602.59;;;25.13;41.46
6899;BME280;3488;42.616;23.350;2022-07-19T09:05:27;64622.44;;;25.27;40.99
6899;BME280;3488;42.616;23.350;2022-07-19T09:08:03;64632.44;;;25.41;41.97
6899;BME280;3488;42.616;23.350;2022-07-19T09:10:31;64648.66;;;25.54;41.42
6899;BME280;3488;42.616;23.350;2022-07-19T09:13:00;64640.31;;;25.49;40.87
6899;BME280;3488;42.616;23.350;2022-07-19T09:15:49;64623.50;;;25.30;39.50
6899;BME280;3488;42.616;23.350;2022-07-19T09:18:18;64616.22;;;25.28;38.69
6899;BME280;3488;42.616;23.350;2022-07-19T09:20:47;64621.97;;;25.31;39.97
6899;BME280;3488;42.616;23.350;2022-07-19T09:23:15;64646.06;;;25.54;40.59
6899;BME280;3488;42.616;23.350;2022-07-19T09:25:44;64663.88;;;25.69;41.25
6899;BME280;3488;42.616;23.350;2022-07-19T09:28:15;64672.81;;;25.80;41.01
6899;BME280;3488;42.616;23.350;2022-07-19T09:30:43;64659.16;;;25.67;39.28
6899;BME280;3488;42.616;23.350;2022-07-19T09:33:13;64657.59;;;25.65;39.09
6899;BME280;3488;42.616;23.350;2022-07-19T09:35:43;64666.50;;;25.71;41.56
6899;BME280;3488;42.616;23.350;2022-07-19T09:38:25;64676.47;;;25.83;38.92
6899;BME280;3488;42.616;23.350;2022-07-19T09:40:54;64682.22;;;25.86;40.86
6899;BME280;3488;42.616;23.350;2022-07-19T09:43:21;64680.13;;;25.84;38.58
6899;BME280;3488;42.616;23.350;2022-07-19T09:45:51;64632.44;;;25.39;40.92
6899;BME280;3488;42.616;23.350;2022-07-19T09:48:18;64654.47;;;25.65;42.77
6899;BME280;3488;42.616;23.350;2022-07-19T09:50:46;64685.88;;;25.90;42.62
6899;BME280;3488;42.616;23.350;2022-07-19T09:53:15;64697.94;;;26.01;40.86
6899;BME280;3488;42.616;23.350;2022-07-19T09:55:44;64708.47;;;26.19;40.95
6899;BME280;3488;42.616;23.350;2022-07-19T09:58:12;64736.22;;;26.38;37.98
6899;BME280;3488;42.616;23.350;2022-07-19T10:00:41;64732.56;;;26.35;39.23
6899;BME280;3488;42.616;23.350;2022-07-19T10:03:09;64751.41;;;26.53;37.51
6899;BME280;3488;42.616;23.350;2022-07-19T10:05:37;64767.19;;;26.73;36.41
6899;BME280;3488;42.616;23.350;2022-07-19T10:08:05;64800.75;;;27.02;38.43
6899;BME280;3488;42.616;23.350;2022-07-19T10:10:32;64858.44;;;27.53;37.20
6899;BME280;3488;42.616;23.350;2022-07-19T10:13:01;64904.16;;;28.04;34.66
6899;BME280;3488;42.616;23.350;2022-07-19T10:15:37;64899.97;;;28.00;34.94
6899;BME280;3488;42.616;23.350;2022-07-19T10:18:14;64950.34;;;28.46;36.02
6899;BME280;3488;42.616;23.350;2022-07-19T10:20:46;64960.34;;;28.53;34.53
6899;BME280;3488;42.616;23.350;2022-07-19T10:23:13;64996.06;;;28.92;34.45
6899;BME280;3488;42.616;23.350;2022-07-19T10:25:43;65023.38;;;29.15;35.12
6899;BME280;3488;42.616;23.350;2022-07-19T10:28:29;64977.66;;;28.72;35.29
6899;BME280;3488;42.616;23.350;2022-07-19T10:30:57;65000.25;;;28.93;35.82
6899;BME280;3488;42.616;23.350;2022-07-19T10:33:29;65030.75;;;29.25;35.38
6899;BME280;3488;42.616;23.350;2022-07-19T10:35:57;64978.19;;;28.72;32.73
6899;BME280;3488;42.616;23.350;2022-07-19T10:38:24;65034.41;;;29.26;34.55
6899;BME280;3488;42.616;23.350;2022-07-19T10:40:51;65046.50;;;29.40;32.34
6899;BME280;3488;42.616;23.350;2022-07-19T10:43:22;65068.03;;;29.56;32.85
6899;BME280;3488;42.616;23.350;2022-07-19T10:46:10;65064.88;;;29.55;31.42
6899;BME280;3488;42.616;23.350;2022-07-19T10:48:40;64988.19;;;28.82;31.06
6899;BME280;3488;42.616;23.350;2022-07-19T10:51:11;64910.47;;;28.07;32.16
6899;BME280;3488;42.616;23.350;2022-07-19T10:53:57;64934.06;;;28.25;32.42
6899;BME280;3488;42.616;23.350;2022-07-19T10:56:37;64977.66;;;28.69;32.58
6899;BME280;3488;42.616;23.350;2022-07-19T10:59:05;64941.44;;;28.39;33.60
6899;BME280;3488;42.616;23.350;2022-07-19T11:01:36;64954.03;;;28.47;32.72
6899;BME280;3488;42.616;23.350;2022-07-19T11:04:27;64954.03;;;28.47;33.06
6899;BME280;3488;42.616;23.350;2022-07-19T11:07:18;64982.94;;;28.77;34.69
6899;BME280;3488;42.616;23.350;2022-07-19T11:09:47;65040.19;;;29.29;33.98
6899;BME280;3488;42.616;23.350;2022-07-19T11:12:26;65065.94;;;29.56;32.65
6899;BME280;3488;42.616;23.350;2022-07-19T11:14:54;65102.22;;;29.91;32.88
6899;BME280;3488;42.616;23.350;2022-07-19T11:17:23;65079.06;;;29.66;32.71
6899;BME280;3488;42.616;23.350;2022-07-19T11:19:59;65114.31;;;30.02;30.45
6899;BME280;3488;42.616;23.350;2022-07-19T11:22:26;65099.59;;;29.83;32.26
6899;BME280;3488;42.616;23.350;2022-07-19T11:24:53;65022.84;;;29.10;32.24
6899;BME280;3488;42.616;23.350;2022-07-19T11:27:20;65063.31;;;29.56;33.17
6899;BME280;3488;42.616;23.350;2022-07-19T11:29:53;64977.69;;;28.74;32.99
6899;BME280;3488;42.616;23.350;2022-07-19T11:32:20;65045.44;;;29.31;33.33
6899;BME280;3488;42.616;23.350;2022-07-19T11:34:55;65082.78;;;29.72;33.83
6899;BME280;3488;42.616;23.350;2022-07-19T11:37:27;65121.66;;;30.09;33.53
6899;BME280;3488;42.616;23.350;2022-07-19T11:39:54;65115.38;;;30.01;32.93
6899;BME280;3488;42.616;23.350;2022-07-19T11:42:34;65107.47;;;29.93;32.93
6899;BME280;3488;42.616;23.350;2022-07-19T11:45:12;65120.09;;;30.03;32.20
6899;BME280;3488;42.616;23.350;2022-07-19T11:47:43;65141.66;;;30.28;30.57
6899;BME280;3488;42.616;23.350;2022-07-19T11:50:13;65109.03;;;30.00;31.19
6899;BME280;3488;42.616;23.350;2022-07-19T11:52:48;65064.34;;;29.54;30.73
6899;BME280;3488;42.616;23.350;2022-07-19T11:55:18;65051.22;;;29.44;33.39
6899;BME280;3488;42.616;23.350;2022-07-19T11:57:46;65045.44;;;29.36;32.63
6899;BME280;3488;42.616;23.350;2022-07-19T12:00:14;65062.78;;;29.53;32.07
6899;BME280;3488;42.616;23.350;2022-07-19T12:03:03;65094.88;;;29.84;31.54
6899;BME280;3488;42.616;23.350;2022-07-19T12:05:36;65062.25;;;29.50;31.62
6899;BME280;3488;42.616;23.350;2022-07-19T12:08:05;65087.50;;;29.77;32.23
6899;BME280;3488;42.616;23.350;2022-07-19T12:10:37;65068.06;;;29.63;31.83
6899;BME280;3488;42.616;23.350;2022-07-19T12:13:05;65006.56;;;28.97;32.23
6899;BME280;3488;42.616;23.350;2022-07-19T12:15:49;65035.47;;;29.24;33.29
6899;BME280;3488;42.616;23.350;2022-07-19T12:18:18;65012.31;;;29.05;32.93
6899;BME280;3488;42.616;23.350;2022-07-19T12:21:22;65034.41;;;29.26;32.24
6899;BME280;3488;42.616;23.350;2022-07-19T12:24:13;65082.25;;;29.69;31.51
6899;BME280;3488;42.616;23.350;2022-07-19T12:26:43;65085.94;;;29.73;31.19
6899;BME280;3488;42.616;23.350;2022-07-19T12:29:17;65065.41;;;29.53;32.45
6899;BME280;3488;42.616;23.350;2022-07-19T12:31:45;65031.25;;;29.23;29.50
6899;BME280;3488;42.616;23.350;2022-07-19T12:34:12;65029.69;;;29.19;31.24
6899;BME280;3488;42.616;23.350;2022-07-19T12:36:40;65070.16;;;29.58;31.66
6899;BME280;3488;42.616;23.350;2022-07-19T12:39:20;65141.66;;;30.26;30.54
6899;BME280;3488;42.616;23.350;2022-07-19T12:41:58;65215.28;;;30.99;30.17
6899;BME280;3488;42.616;23.350;2022-07-19T12:44:26;65171.63;;;30.59;29.41
6899;BME280;3488;42.616;23.350;2022-07-19T12:46:54;65247.38;;;31.24;30.08
6899;BME280;3488;42.616;23.350;2022-07-19T12:49:21;65213.19;;;30.97;29.35
6899;BME280;3488;42.616;23.350;2022-07-19T12:51:50;65235.81;;;31.18;29.53
6899;BME280;3488;42.616;23.350;2022-07-19T12:54:17;65198.47;;;30.83;29.12
6899;BME280;3488;42.616;23.350;2022-07-19T12:56:44;65195.81;;;30.78;28.88
6899;BME280;3488;42.616;23.350;2022-07-19T12:59:11;65142.72;;;30.24;30.80
6899;BME280;3488;42.616;23.350;2022-07-19T13:01:56;65152.72;;;30.39;32.69
6899;BME280;3488;42.616;23.350;2022-07-19T13:04:23;65163.75;;;30.47;29.92
6899;BME280;3488;42.616;23.350;2022-07-19T13:06:51;65193.72;;;30.78;29.67
6899;BME280;3488;42.616;23.350;2022-07-19T13:09:18;65225.81;;;31.09;28.65
6899;BME280;3488;42.616;23.350;2022-07-19T13:11:45;65225.81;;;31.09;28.65
6899;BME280;3488;42.616;23.350;2022-07-19T13:14:12;65277.41;;;31.58;29.35
6899;BME280;3488;42.616;23.350;2022-07-19T13:16:39;65230.03;;;31.05;28.42
6899;BME280;3488;42.616;23.350;2022-07-19T13:19:06;65231.59;;;31.12;27.17